Time;durP1;ratioP1;P1;durP2;ratioP2;P2;SDS_P1;SDS_P2;PMS_P1;PMS_P2;Temp;Humidity;BMP_temperature;BMP_pressure;BME280_temperature;BME280_humidity;BME280_pressure;Samples;Min_cycle;Max_cycle;Signal;HPM_P1;HPM_P2
2022/01/31 00:00:59;;;;;;;33.42;3.92;;;4.10;99.90;;;;;;5044791;28;20056;-78
2022/01/31 00:03:24;;;;;;;19.00;3.90;;;4.10;99.90;;;;;;5044966;28;20076;-78
2022/01/31 00:05:50;;;;;;;17.55;3.90;;;4.10;99.90;;;;;;5045179;28;20056;-78
2022/01/31 00:08:21;;;;;;;12.25;3.00;;;4.10;99.90;;;;;;5044288;28;20125;-77
2022/01/31 00:10:48;;;;;;;23.30;5.18;;;4.10;99.90;;;;;;5045317;28;20048;-77
2022/01/31 00:13:19;;;;;;;18.83;4.20;;;4.10;99.90;;;;;;5043182;28;20040;-77
2022/01/31 00:15:52;;;;;;;20.30;3.55;;;4.10;99.90;;;;;;5044336;28;20534;-77
2022/01/31 00:18:18;;;;;;;17.75;3.88;;;4.10;99.90;;;;;;5027789;28;20048;-78
2022/01/31 00:20:44;;;;;;;17.95;3.72;;;4.10;99.90;;;;;;5011332;28;20036;-78
2022/01/31 00:23:10;;;;;;;29.67;4.35;;;4.10;99.90;;;;;;5045501;28;20492;-78
2022/01/31 00:25:36;;;;;;;16.55;2.67;;;4.10;99.90;;;;;;5045040;28;20504;-79
2022/01/31 00:28:02;;;;;;;11.80;3.38;;;4.10;99.90;;;;;;5043692;28;20066;-79
2022/01/31 00:30:27;;;;;;;16.52;3.20;;;4.10;99.90;;;;;;5042976;28;20045;-78
2022/01/31 00:32:53;;;;;;;20.25;3.70;;;4.70;99.90;;;;;;4994248;28;20099;-78
2022/01/31 00:35:19;;;;;;;18.95;3.30;;;4.20;99.90;;;;;;5010610;28;20426;-78
2022/01/31 00:37:45;;;;;;;16.70;3.92;;;4.20;99.90;;;;;;5043570;28;20476;-78
2022/01/31 00:40:12;;;;;;;17.02;3.08;;;4.20;99.90;;;;;;5043359;28;20505;-79
2022/01/31 00:42:38;;;;;;;14.55;2.95;;;4.20;99.90;;;;;;5043737;28;20057;-79
2022/01/31 00:45:12;;;;;;;16.05;3.15;;;4.20;99.90;;;;;;5043586;28;20041;-78
2022/01/31 00:47:43;;;;;;;13.35;3.38;;;4.20;99.90;;;;;;5043090;28;20045;-78
2022/01/31 00:50:11;;;;;;;20.67;3.03;;;4.20;99.90;;;;;;5043707;28;20048;-76
2022/01/31 00:52:39;;;;;;;23.13;3.97;;;4.20;99.90;;;;;;5042960;28;20078;-78
2022/01/31 00:55:07;;;;;;;13.98;2.80;;;4.20;99.90;;;;;;5043192;28;20067;-79
2022/01/31 00:57:32;;;;;;;27.70;4.20;;;4.20;99.90;;;;;;5026772;28;20045;-78
2022/01/31 00:59:58;;;;;;;11.65;2.78;;;4.20;99.90;;;;;;5026795;28;20056;-78
2022/01/31 01:02:25;;;;;;;15.95;3.35;;;4.20;99.90;;;;;;5044859;28;20037;-78
2022/01/31 01:04:51;;;;;;;15.57;3.20;;;4.40;99.90;;;;;;5044597;28;20044;-78
2022/01/31 01:07:19;;;;;;;19.33;3.67;;;4.20;99.90;;;;;;5044096;28;20056;-78
2022/01/31 01:09:45;;;;;;;16.67;4.38;;;4.20;99.90;;;;;;5010041;28;20055;-78
2022/01/31 01:12:15;;;;;;;11.57;3.47;;;4.20;99.90;;;;;;5042834;28;20056;-79
2022/01/31 01:14:41;;;;;;;32.83;4.72;;;4.10;99.90;;;;;;5043267;28;20049;-79
2022/01/31 01:17:07;;;;;;;15.05;4.00;;;4.10;99.90;;;;;;5044154;28;20045;-78
2022/01/31 01:19:33;;;;;;;15.57;4.43;;;4.10;99.90;;;;;;5043175;28;20102;-78
2022/01/31 01:21:59;;;;;;;14.45;4.05;;;4.10;99.90;;;;;;5028008;28;20041;-79
2022/01/31 01:24:24;;;;;;;15.40;4.63;;;4.10;99.90;;;;;;5030012;28;20119;-78
2022/01/31 01:26:50;;;;;;;15.10;4.50;;;4.10;99.90;;;;;;5048470;28;20041;-79
2022/01/31 01:29:17;;;;;;;17.75;4.65;;;4.10;99.90;;;;;;5046677;28;20041;-79
2022/01/31 01:31:47;;;;;;;11.63;4.20;;;4.10;99.90;;;;;;5047022;28;20073;-79
2022/01/31 01:34:13;;;;;;;18.40;5.30;;;4.10;99.90;;;;;;5047557;28;20068;-79
2022/01/31 01:36:39;;;;;;;18.27;5.47;;;4.10;99.90;;;;;;5046499;28;20056;-79
2022/01/31 01:39:06;;;;;;;13.30;5.13;;;4.10;99.90;;;;;;5046067;28;20052;-80
2022/01/31 01:41:32;;;;;;;13.82;5.63;;;4.10;99.90;;;;;;5029530;28;20091;-79
2022/01/31 01:43:58;;;;;;;13.15;4.88;;;4.10;99.90;;;;;;5047308;28;20505;-80
2022/01/31 01:46:24;;;;;;;23.30;6.47;;;4.00;99.90;;;;;;4997050;28;20086;-81
2022/01/31 01:48:50;;;;;;;18.90;5.95;;;4.00;99.90;;;;;;5030432;28;20045;-81
2022/01/31 01:51:16;;;;;;;15.93;5.80;;;4.00;99.90;;;;;;5047321;28;20107;-81
2022/01/31 01:53:42;;;;;;;15.27;6.25;;;4.00;99.90;;;;;;5047252;28;20044;-80
2022/01/31 01:56:08;;;;;;;22.98;7.10;;;4.70;99.90;;;;;;5047313;28;20045;-80
2022/01/31 01:58:40;;;;;;;19.85;6.88;;;3.90;99.90;;;;;;5047569;28;20067;-80
2022/01/31 02:01:06;;;;;;;15.55;6.50;;;3.90;99.90;;;;;;5047148;28;20049;-80
2022/01/31 02:03:34;;;;;;;20.52;7.70;;;3.90;99.90;;;;;;5047188;28;20597;-80
2022/01/31 02:06:00;;;;;;;18.75;6.88;;;5.00;99.90;;;;;;5047779;28;20052;-80
2022/01/31 02:08:28;;;;;;;16.65;6.38;;;3.80;99.90;;;;;;5045946;28;20673;-80
2022/01/31 02:10:54;;;;;;;18.13;6.25;;;3.80;99.90;;;;;;5047052;28;20045;-80
2022/01/31 02:13:20;;;;;;;22.50;7.32;;;3.70;99.90;;;;;;5047036;28;20048;-80
2022/01/31 02:15:51;;;;;;;12.73;6.20;;;3.70;99.90;;;;;;5045821;28;20044;-80
2022/01/31 02:18:20;;;;;;;15.57;6.90;;;3.70;99.90;;;;;;5045992;28;20080;-80
2022/01/31 02:20:46;;;;;;;15.40;6.70;;;3.60;99.90;;;;;;5045565;28;20126;-80
2022/01/31 02:23:13;;;;;;;10.77;6.75;;;3.60;99.90;;;;;;5045976;28;20165;-80
2022/01/31 02:25:56;;;;;;;10.55;6.90;;;3.50;99.90;;;;;;5047010;28;20049;-80
2022/01/31 02:28:24;;;;;;;11.40;5.97;;;3.50;99.90;;;;;;5047044;28;20083;-80
2022/01/31 02:30:50;;;;;;;7.57;5.00;;;3.50;99.90;;;;;;5045296;28;20045;-80
2022/01/31 02:33:18;;;;;;;11.13;6.47;;;3.40;99.90;;;;;;5045140;28;20494;-79
2022/01/31 02:35:47;;;;;;;21.63;6.30;;;3.30;99.90;;;;;;5045538;28;20502;-80
2022/01/31 02:38:14;;;;;;;10.70;5.43;;;3.30;99.90;;;;;;5045251;28;20037;-80
2022/01/31 02:40:40;;;;;;;10.50;5.60;;;3.20;99.90;;;;;;5045328;28;20059;-79
2022/01/31 02:43:06;;;;;;;10.73;5.90;;;3.20;99.90;;;;;;5044890;28;20123;-80
2022/01/31 02:45:32;;;;;;;12.48;6.32;;;3.20;99.90;;;;;;5045485;28;20053;-80
2022/01/31 02:48:00;;;;;;;13.30;5.55;;;3.10;99.90;;;;;;5044934;28;20490;-80
2022/01/31 02:50:26;;;;;;;13.30;6.10;;;4.20;99.90;;;;;;5045058;28;20063;-80
2022/01/31 02:53:10;;;;;;;16.50;6.80;;;3.10;99.90;;;;;;5045087;28;20079;-80
2022/01/31 02:55:37;;;;;;;13.03;7.03;;;4.40;99.90;;;;;;5044774;28;20068;-79
2022/01/31 02:58:03;;;;;;;12.55;5.65;;;3.50;99.90;;;;;;5011561;28;20363;-79
2022/01/31 03:00:28;;;;;;;15.82;7.30;;;3.20;99.90;;;;;;5044492;28;20136;-79
2022/01/31 03:02:54;;;;;;;16.50;7.63;;;3.20;99.90;;;;;;5044982;28;20041;-78
2022/01/31 03:05:20;;;;;;;18.85;7.53;;;3.20;99.90;;;;;;5044932;28;20524;-79
2022/01/31 03:07:45;;;;;;;7.93;6.50;;;3.30;99.90;;;;;;5045993;28;20465;-79
2022/01/31 03:10:11;;;;;;;11.55;6.65;;;4.40;99.90;;;;;;5044716;28;20420;-79
2022/01/31 03:12:37;;;;;;;15.55;7.18;;;3.30;99.90;;;;;;5011770;28;20037;-79
2022/01/31 03:15:03;;;;;;;10.85;6.78;;;3.70;99.90;;;;;;5028192;28;20555;-79
2022/01/31 03:17:29;;;;;;;14.18;6.63;;;3.40;99.90;;;;;;5027235;28;20580;-79
2022/01/31 03:19:55;;;;;;;13.55;6.30;;;4.70;99.90;;;;;;5027727;28;20139;-79
2022/01/31 03:22:22;;;;;;;11.77;6.03;;;3.50;99.90;;;;;;5044119;28;20080;-79
2022/01/31 03:24:48;;;;;;;11.27;5.80;;;3.50;99.90;;;;;;5046151;28;20055;-79
2022/01/31 03:27:15;;;;;;;8.63;5.75;;;3.60;99.90;;;;;;5046149;28;20098;-78
2022/01/31 03:29:41;;;;;;;11.77;5.88;;;3.70;99.90;;;;;;5043986;28;20495;-79
2022/01/31 03:32:07;;;;;;;9.38;4.82;;;4.80;99.90;;;;;;5044007;28;20044;-78
2022/01/31 03:34:33;;;;;;;7.00;4.88;;;2.70;99.90;;;;;;5043855;28;20051;-78
2022/01/31 03:36:58;;;;;;;10.48;5.43;;;3.80;99.90;;;;;;5044167;28;20049;-78
2022/01/31 03:39:25;;;;;;;13.15;4.45;;;4.80;99.90;;;;;;5043806;28;20056;-78
2022/01/31 03:41:51;;;;;;;9.10;4.10;;;3.90;99.90;;;;;;5027692;28;20510;-78
2022/01/31 03:44:17;;;;;;;13.95;4.40;;;4.00;99.90;;;;;;5026964;28;20107;-78
2022/01/31 03:46:42;;;;;;;11.85;4.70;;;4.10;99.90;;;;;;5043567;28;20080;-78
2022/01/31 03:49:08;;;;;;;12.93;4.75;;;4.20;99.90;;;;;;5044191;28;20121;-78
2022/01/31 03:51:34;;;;;;;7.97;3.25;;;4.20;99.90;;;;;;5043288;28;20559;-78
2022/01/31 03:54:00;;;;;;;18.08;3.65;;;4.20;99.90;;;;;;5044082;28;20048;-78
2022/01/31 03:56:26;;;;;;;14.65;2.38;;;4.30;99.90;;;;;;5027041;28;20135;-78
2022/01/31 03:58:51;;;;;;;22.83;3.38;;;5.80;99.90;;;;;;5027532;28;20145;-79
2022/01/31 04:01:17;;;;;;;20.75;3.05;;;4.60;99.90;;;;;;5043887;28;20041;-79
2022/01/31 04:03:43;;;;;;;22.92;2.88;;;4.70;99.90;;;;;;5043540;28;20053;-79
2022/01/31 04:06:08;;;;;;;13.30;2.45;;;4.90;99.90;;;;;;5044237;28;20052;-79
2022/01/31 04:08:34;;;;;;;10.57;1.20;;;5.00;99.90;;;;;;5043750;28;20452;-79
2022/01/31 04:11:00;;;;;;;9.45;0.98;;;5.10;99.90;;;;;;5026921;28;20045;-79
2022/01/31 04:13:26;;;;;;;7.53;1.17;;;5.10;99.90;;;;;;5043624;28;20062;-79
2022/01/31 04:15:53;;;;;;;18.75;1.95;;;5.10;99.90;;;;;;5010995;28;20057;-79
2022/01/31 04:18:19;;;;;;;22.48;1.42;;;5.20;99.90;;;;;;5043603;28;20048;-78
2022/01/31 04:20:45;;;;;;;12.95;1.77;;;5.20;99.90;;;;;;5043276;28;20041;-78
2022/01/31 04:23:13;;;;;;;10.52;1.45;;;6.90;99.90;;;;;;5026808;28;20041;-79
2022/01/31 04:25:46;;;;;;;11.25;1.88;;;6.80;99.90;;;;;;5044256;28;20057;-78
2022/01/31 04:28:26;;;;;;;16.98;2.00;;;5.40;99.90;;;;;;5044966;28;20041;-78
2022/01/31 04:30:58;;;;;;;11.73;1.80;;;6.00;99.90;;;;;;5045043;28;20080;-78
2022/01/31 04:33:26;;;;;;;8.02;0.90;;;5.40;99.90;;;;;;5045309;28;20490;-78
2022/01/31 04:35:53;;;;;;;14.13;1.73;;;6.20;99.90;;;;;;5043980;28;20051;-79
2022/01/31 04:38:19;;;;;;;12.98;1.55;;;5.40;99.90;;;;;;5044351;28;20045;-78
2022/01/31 04:40:45;;;;;;;13.45;1.40;;;5.40;99.90;;;;;;5044428;28;20048;-78
2022/01/31 04:43:11;;;;;;;13.80;1.30;;;5.30;99.90;;;;;;5027058;28;20556;-78
2022/01/31 04:45:37;;;;;;;19.60;1.70;;;5.20;99.90;;;;;;5043295;28;20138;-78
2022/01/31 04:48:03;;;;;;;10.95;1.40;;;5.90;99.90;;;;;;5044848;28;20048;-78
2022/01/31 04:50:29;;;;;;;12.95;1.52;;;5.20;99.90;;;;;;5045082;28;20045;-78
2022/01/31 04:52:55;;;;;;;19.10;2.28;;;5.20;99.90;;;;;;5044805;28;20443;-78
2022/01/31 04:55:21;;;;;;;15.90;2.08;;;5.30;99.90;;;;;;5045909;28;20055;-78
2022/01/31 04:57:47;;;;;;;13.18;1.75;;;5.20;99.90;;;;;;5048326;28;20136;-78
2022/01/31 05:00:13;;;;;;;15.20;2.38;;;5.30;99.90;;;;;;5048148;28;20065;-78
2022/01/31 05:02:39;;;;;;;15.63;1.45;;;5.30;99.90;;;;;;5047449;28;20049;-78
2022/01/31 05:05:05;;;;;;;14.55;1.25;;;5.20;99.90;;;;;;5048788;28;20094;-78
2022/01/31 05:07:32;;;;;;;8.57;1.58;;;5.30;99.90;;;;;;5048441;28;20445;-78
2022/01/31 05:09:58;;;;;;;9.70;2.00;;;5.20;99.90;;;;;;5048771;28;20410;-78
2022/01/31 05:12:25;;;;;;;11.98;1.88;;;5.20;99.90;;;;;;5048156;28;20056;-78
2022/01/31 05:14:51;;;;;;;18.38;1.52;;;6.40;99.90;;;;;;5030034;28;20041;-78
2022/01/31 05:17:16;;;;;;;10.05;1.35;;;5.20;99.90;;;;;;5047961;28;20059;-78
2022/01/31 05:19:42;;;;;;;14.23;1.05;;;5.20;99.90;;;;;;5048084;28;20098;-78
2022/01/31 05:22:08;;;;;;;8.13;0.80;;;6.30;99.90;;;;;;5048214;28;20045;-78
2022/01/31 05:24:33;;;;;;;5.47;0.80;;;5.10;99.90;;;;;;5048188;28;20045;-78
2022/01/31 05:26:59;;;;;;;12.60;1.13;;;5.10;99.90;;;;;;5048152;28;20053;-77
2022/01/31 05:29:25;;;;;;;3.28;0.90;;;5.10;99.90;;;;;;5047956;28;20045;-78
2022/01/31 05:31:52;;;;;;;3.83;0.70;;;5.00;99.90;;;;;;5046276;28;20049;-78
2022/01/31 05:34:19;;;;;;;7.40;0.73;;;4.90;99.90;;;;;;5047774;28;20044;-78
2022/01/31 05:36:45;;;;;;;10.68;0.90;;;5.00;99.90;;;;;;5047886;28;20052;-78
2022/01/31 05:39:11;;;;;;;10.10;0.90;;;4.90;99.90;;;;;;5047411;28;20044;-78
2022/01/31 05:41:37;;;;;;;5.78;0.75;;;4.90;99.90;;;;;;5046297;28;20037;-80
2022/01/31 05:44:03;;;;;;;21.80;1.38;;;4.90;99.90;;;;;;5046498;28;20041;-79
2022/01/31 05:46:29;;;;;;;13.18;1.40;;;4.30;99.90;;;;;;5029489;28;20124;-79
2022/01/31 05:48:55;;;;;;;11.80;0.90;;;5.20;99.90;;;;;;5047599;28;20053;-79
2022/01/31 05:51:22;;;;;;;9.20;1.15;;;4.90;99.90;;;;;;5046958;28;20096;-77
2022/01/31 05:53:50;;;;;;;10.48;1.38;;;4.90;99.90;;;;;;5047500;28;20055;-77
2022/01/31 05:56:17;;;;;;;6.63;0.73;;;4.90;99.90;;;;;;5047374;28;20037;-78
2022/01/31 05:58:44;;;;;;;3.38;0.63;;;4.90;99.90;;;;;;5047783;28;20115;-79
2022/01/31 06:01:10;;;;;;;12.50;1.67;;;4.90;99.90;;;;;;5047383;28;20057;-75
2022/01/31 06:03:37;;;;;;;12.10;1.02;;;4.90;99.90;;;;;;5047161;28;20048;-76
2022/01/31 06:06:04;;;;;;;17.92;1.35;;;4.90;99.90;;;;;;5045415;28;20036;-78
2022/01/31 06:08:30;;;;;;;17.95;2.17;;;5.20;99.90;;;;;;5045879;28;20048;-78
2022/01/31 06:10:56;;;;;;;11.13;1.95;;;4.90;99.90;;;;;;5045305;28;20124;-77
2022/01/31 06:13:29;;;;;;;14.02;1.05;;;4.80;99.90;;;;;;5045362;28;20043;-78
2022/01/31 06:15:55;;;;;;;11.50;1.48;;;5.40;99.90;;;;;;5045888;28;20045;-77
2022/01/31 06:18:20;;;;;;;10.57;1.73;;;4.80;99.90;;;;;;5047170;28;20064;-78
2022/01/31 06:20:46;;;;;;;8.18;1.38;;;4.90;99.90;;;;;;5045567;28;20120;-78
2022/01/31 06:23:13;;;;;;;10.02;0.63;;;4.90;99.90;;;;;;5045295;28;20820;-78
2022/01/31 06:25:39;;;;;;;6.95;1.05;;;4.80;99.90;;;;;;5046862;28;20045;-79
2022/01/31 06:28:06;;;;;;;8.48;0.95;;;4.90;99.90;;;;;;5047253;28;20040;-78
2022/01/31 06:30:33;;;;;;;10.68;1.80;;;4.90;99.90;;;;;;5045253;28;20083;-79
2022/01/31 06:32:59;;;;;;;8.32;0.77;;;5.60;99.90;;;;;;5046918;28;20060;-78
2022/01/31 06:35:25;;;;;;;12.20;1.48;;;4.90;99.90;;;;;;5046346;28;20040;-78
2022/01/31 06:37:52;;;;;;;8.68;0.85;;;4.90;99.90;;;;;;5046585;28;20041;-79
2022/01/31 06:40:18;;;;;;;10.32;1.17;;;5.00;99.90;;;;;;5044930;28;20048;-79
2022/01/31 06:42:43;;;;;;;10.85;0.93;;;5.00;99.90;;;;;;5044489;28;20045;-79
2022/01/31 06:45:09;;;;;;;8.80;1.50;;;5.00;99.90;;;;;;5046844;28;20050;-79
2022/01/31 06:47:35;;;;;;;13.13;1.77;;;5.00;99.90;;;;;;5012320;28;20053;-79
2022/01/31 06:50:04;;;;;;;8.18;0.98;;;5.00;99.90;;;;;;5046570;28;20521;-78
2022/01/31 06:52:33;;;;;;;15.45;1.50;;;5.00;99.90;;;;;;5046627;28;20073;-79
2022/01/31 06:55:03;;;;;;;9.15;1.25;;;5.00;99.90;;;;;;5046582;28;20437;-78
2022/01/31 06:57:33;;;;;;;12.45;1.13;;;5.00;99.90;;;;;;5045027;28;20041;-79
2022/01/31 07:00:05;;;;;;;19.98;1.33;;;5.00;99.90;;;;;;5046170;28;20045;-79
2022/01/31 07:02:31;;;;;;;10.75;1.13;;;5.00;99.90;;;;;;5028237;28;20040;-78
2022/01/31 07:04:57;;;;;;;9.20;1.27;;;5.00;99.90;;;;;;5045013;28;20048;-78
2022/01/31 07:07:23;;;;;;;13.23;1.48;;;5.10;99.90;;;;;;5044707;28;20048;-78
2022/01/31 07:09:48;;;;;;;12.65;0.90;;;5.10;99.90;;;;;;5044851;28;20048;-78
2022/01/31 07:12:16;;;;;;;11.48;1.30;;;6.30;99.90;;;;;;5044242;28;20044;-77
2022/01/31 07:14:42;;;;;;;10.18;0.95;;;5.10;99.90;;;;;;5027761;28;20045;-77
2022/01/31 07:17:08;;;;;;;11.65;1.20;;;5.10;99.90;;;;;;5027672;28;20095;-78
2022/01/31 07:19:37;;;;;;;5.93;0.75;;;6.30;99.90;;;;;;5011193;28;20091;-78
2022/01/31 07:22:06;;;;;;;14.05;1.30;;;5.20;99.90;;;;;;5044432;28;20078;-78
2022/01/31 07:27:01;;;;;;;6.35;1.05;;;5.20;99.90;;;;;;5044403;28;20052;-77
2022/01/31 07:29:27;;;;;;;13.60;1.52;;;5.20;99.90;;;;;;5043746;28;20474;-78
2022/01/31 07:31:53;;;;;;;11.18;0.90;;;5.20;99.90;;;;;;5027753;28;20041;-78
2022/01/31 07:34:20;;;;;;;6.78;0.95;;;5.20;99.90;;;;;;5027848;28;20047;-78
2022/01/31 07:36:46;;;;;;;11.85;1.15;;;6.20;99.90;;;;;;5044551;28;20049;-79
2022/01/31 07:39:13;;;;;;;7.00;0.90;;;5.10;99.90;;;;;;5011171;28;20040;-79
2022/01/31 07:41:39;;;;;;;13.00;1.02;;;5.10;99.90;;;;;;4994609;28;20132;-79
2022/01/31 07:44:05;;;;;;;7.32;1.20;;;5.10;99.90;;;;;;5045531;28;20041;-78
2022/01/31 07:46:31;;;;;;;11.80;1.10;;;5.50;99.90;;;;;;5043355;28;20037;-78
2022/01/31 07:48:57;;;;;;;15.90;1.05;;;5.10;99.90;;;;;;5044259;28;20040;-78
2022/01/31 07:51:23;;;;;;;3.95;0.63;;;5.10;99.90;;;;;;5045052;28;20045;-78
2022/01/31 07:53:49;;;;;;;18.00;1.05;;;5.20;99.90;;;;;;5027768;28;20532;-78
2022/01/31 07:56:16;;;;;;;10.52;1.10;;;6.20;99.90;;;;;;5027814;28;20467;-78
2022/01/31 07:58:42;;;;;;;7.78;0.95;;;5.20;99.90;;;;;;5043416;28;20044;-78
2022/01/31 08:01:08;;;;;;;9.55;1.05;;;5.20;99.90;;;;;;5027621;28;20052;-78
2022/01/31 08:03:35;;;;;;;5.93;0.68;;;5.20;99.90;;;;;;5010733;28;20593;-78
2022/01/31 08:06:02;;;;;;;3.85;0.47;;;5.20;99.90;;;;;;5027038;28;20563;-78
2022/01/31 08:08:29;;;;;;;6.38;0.70;;;5.20;99.90;;;;;;5044815;28;20099;-78
2022/01/31 08:10:59;;;;;;;5.35;0.82;;;5.10;99.90;;;;;;5043648;28;20059;-78
2022/01/31 08:13:26;;;;;;;3.53;1.15;;;5.10;99.90;;;;;;5027185;28;20049;-78
2022/01/31 08:18:27;;;;;;;10.57;1.25;;;5.50;99.90;;;;;;5043597;28;20049;-78
2022/01/31 08:20:53;;;;;;;3.05;0.65;;;5.10;99.90;;;;;;5043110;28;20041;-78
2022/01/31 08:23:18;;;;;;;10.02;0.93;;;5.30;99.90;;;;;;5043143;28;20048;-78
2022/01/31 08:25:49;;;;;;;17.27;1.30;;;5.20;99.90;;;;;;5026259;28;20079;-78
2022/01/31 08:28:17;;;;;;;11.75;1.10;;;5.20;99.90;;;;;;5026766;28;20052;-78
2022/01/31 08:33:24;;;;;;;6.05;0.63;;;5.30;99.90;;;;;;5042687;28;20049;-79
2022/01/31 08:35:50;;;;;;;3.78;0.60;;;6.90;99.90;;;;;;5043115;28;20513;-78
2022/01/31 08:38:18;;;;;;;2.95;0.43;;;5.30;99.90;;;;;;5043398;28;20122;-79
2022/01/31 08:40:45;;;;;;;6.18;0.75;;;5.30;99.90;;;;;;5043209;28;20052;-78
2022/01/31 08:43:12;;;;;;;4.90;0.85;;;5.40;99.90;;;;;;5026765;28;20498;-78
2022/01/31 08:45:38;;;;;;;5.78;0.93;;;5.40;99.90;;;;;;5044321;28;20085;-78
2022/01/31 08:48:04;;;;;;;12.65;0.88;;;5.40;99.90;;;;;;5043417;28;20089;-77
2022/01/31 08:50:31;;;;;;;10.35;1.35;;;5.40;99.90;;;;;;5043328;28;20478;-78
2022/01/31 08:52:56;;;;;;;10.98;1.15;;;5.40;99.90;;;;;;5026275;28;20057;-78
2022/01/31 08:55:22;;;;;;;7.72;1.00;;;5.50;99.90;;;;;;5026609;28;20075;-78
2022/01/31 08:57:53;;;;;;;7.10;0.73;;;7.00;99.90;;;;;;5025238;28;20049;-77
2022/01/31 09:00:19;;;;;;;8.18;0.80;;;5.60;99.90;;;;;;5011235;28;20144;-78
2022/01/31 09:03:00;;;;;;;8.27;1.15;;;7.00;99.90;;;;;;5026561;28;20083;-78
2022/01/31 09:05:26;;;;;;;16.45;1.35;;;6.20;99.90;;;;;;5026577;28;20099;-77
2022/01/31 09:07:52;;;;;;;13.30;0.90;;;5.60;99.90;;;;;;5043938;28;20120;-78
2022/01/31 09:10:18;;;;;;;15.23;1.55;;;5.70;99.90;;;;;;5042511;28;20048;-79
2022/01/31 09:12:44;;;;;;;9.32;0.80;;;6.00;99.90;;;;;;5042904;28;20075;-77
2022/01/31 09:15:12;;;;;;;8.07;1.05;;;7.50;99.90;;;;;;5044719;28;20041;-80
2022/01/31 09:17:40;;;;;;;10.10;1.38;;;6.40;99.90;;;;;;5044809;28;20045;-79
2022/01/31 09:20:06;;;;;;;1.58;0.57;;;6.40;99.90;;;;;;5043851;28;20587;-78
2022/01/31 09:22:32;;;;;;;2.78;0.30;;;6.40;99.90;;;;;;5042973;28;20041;-78
2022/01/31 09:24:58;;;;;;;5.80;0.80;;;6.40;99.90;;;;;;5042692;28;20037;-78
2022/01/31 09:27:24;;;;;;;4.72;0.70;;;6.30;99.90;;;;;;5044158;28;20041;-78
2022/01/31 09:29:50;;;;;;;5.57;0.60;;;6.20;99.90;;;;;;5025818;28;20530;-78
2022/01/31 09:32:21;;;;;;;4.28;0.70;;;6.20;99.90;;;;;;5043846;28;20048;-78
2022/01/31 09:34:47;;;;;;;2.63;0.60;;;6.40;99.90;;;;;;5044323;28;20044;-78
2022/01/31 09:37:12;;;;;;;6.22;0.60;;;6.50;99.90;;;;;;5042495;28;20045;-79
2022/01/31 09:39:38;;;;;;;6.28;0.95;;;6.60;99.90;;;;;;5042451;28;20102;-78
2022/01/31 09:42:09;;;;;;;3.90;0.60;;;6.70;99.90;;;;;;5026607;28;20555;-78
2022/01/31 09:44:51;;;;;;;6.30;0.73;;;6.80;99.90;;;;;;5046404;28;20083;-79
2022/01/31 09:47:34;;;;;;;5.43;0.83;;;7.00;99.90;;;;;;5046351;28;20057;-79
2022/01/31 09:50:00;;;;;;;2.70;0.43;;;7.10;99.90;;;;;;5047161;28;20549;-78
2022/01/31 09:52:25;;;;;;;6.22;0.85;;;7.00;99.90;;;;;;5046978;28;20057;-78
2022/01/31 09:54:51;;;;;;;10.13;1.42;;;7.00;99.90;;;;;;5045682;28;20087;-78
2022/01/31 09:57:17;;;;;;;9.25;0.95;;;7.00;99.90;;;;;;5045938;28;20056;-78
2022/01/31 09:59:43;;;;;;;9.68;1.00;;;7.00;99.90;;;;;;5047290;28;20044;-79
2022/01/31 10:02:12;;;;;;;5.50;0.80;;;7.10;99.90;;;;;;5046125;28;20408;-79
2022/01/31 10:04:43;;;;;;;9.55;0.95;;;7.20;99.90;;;;;;5046171;28;20052;-78
2022/01/31 10:07:09;;;;;;;3.90;0.65;;;7.40;99.90;;;;;;5047136;28;20639;-78
2022/01/31 10:09:35;;;;;;;9.82;1.10;;;7.50;99.90;;;;;;5029367;28;20049;-78
2022/01/31 10:12:18;;;;;;;20.15;1.80;;;7.60;99.90;;;;;;5029043;28;20044;-79
2022/01/31 10:17:40;;;;;;;7.93;1.40;;;7.70;99.90;;;;;;5046337;28;20058;-78
2022/01/31 10:20:17;;;;;;;8.65;1.30;;;7.80;99.90;;;;;;5045919;28;20310;-78
2022/01/31 10:22:44;;;;;;;5.68;0.52;;;7.80;99.90;;;;;;5047116;28;20049;-79
2022/01/31 10:25:16;;;;;;;11.80;1.33;;;8.70;99.90;;;;;;5045011;28;20563;-78
2022/01/31 10:27:52;;;;;;;1.45;0.30;;;7.90;99.90;;;;;;5045546;28;20394;-79
2022/01/31 10:30:23;;;;;;;9.80;1.90;;;7.90;99.90;;;;;;5046796;28;20538;-78
2022/01/31 10:32:51;;;;;;;12.98;1.08;;;8.70;99.90;;;;;;5044970;28;20077;-77
2022/01/31 10:35:18;;;;;;;7.35;0.90;;;7.90;99.90;;;;;;5045504;28;20403;-77
2022/01/31 10:37:46;;;;;;;14.93;1.45;;;7.80;99.90;;;;;;5044831;28;20045;-77
2022/01/31 10:53:55;;;;;;;8.77;0.80;;;8.10;99.90;;;;;;5044115;28;20045;-78
2022/01/31 10:56:22;;;;;;;7.10;1.10;;;8.10;99.90;;;;;;5045268;28;20516;-78
2022/01/31 10:58:57;;;;;;;11.90;1.50;;;7.90;99.90;;;;;;5044861;28;20094;-77
2022/01/31 11:01:24;;;;;;;11.02;1.52;;;8.30;99.90;;;;;;5044758;28;20057;-77
2022/01/31 11:03:51;;;;;;;7.43;1.23;;;8.30;99.90;;;;;;5044718;28;20560;-77
2022/01/31 11:06:19;;;;;;;11.98;1.00;;;8.30;99.90;;;;;;5044607;28;20052;-77
2022/01/31 11:08:45;;;;;;;6.88;1.00;;;8.40;99.90;;;;;;5046191;28;20552;-77
2022/01/31 11:11:12;;;;;;;12.73;1.50;;;8.90;99.90;;;;;;5044163;28;20131;-77
2022/01/31 11:13:38;;;;;;;12.88;1.38;;;8.60;99.90;;;;;;5028213;28;20130;-77
2022/01/31 11:16:06;;;;;;;10.85;1.30;;;8.80;99.90;;;;;;5044407;28;20049;-77
2022/01/31 11:18:34;;;;;;;7.38;0.73;;;8.70;99.90;;;;;;5043884;28;20222;-77
2022/01/31 11:21:06;;;;;;;9.15;1.52;;;8.70;99.90;;;;;;5045987;28;20372;-77
2022/01/31 11:23:40;;;;;;;12.68;1.33;;;8.70;99.90;;;;;;5044207;28;20049;-77
2022/01/31 11:26:08;;;;;;;9.05;1.30;;;8.70;99.90;;;;;;5044771;28;20079;-77
2022/01/31 11:28:36;;;;;;;14.63;1.55;;;8.80;99.90;;;;;;5045701;28;20045;-77
2022/01/31 11:31:03;;;;;;;13.88;1.75;;;8.70;99.90;;;;;;5027735;28;20072;-77
2022/01/31 11:33:30;;;;;;;11.48;1.65;;;8.70;99.90;;;;;;5027402;28;20045;-77
2022/01/31 11:35:55;;;;;;;18.27;1.88;;;8.70;99.90;;;;;;5044119;28;20049;-77
2022/01/31 11:38:22;;;;;;;16.33;1.98;;;9.80;99.90;;;;;;5027711;28;20110;-78
2022/01/31 11:40:48;;;;;;;12.18;1.58;;;9.60;99.90;;;;;;5011059;28;20045;-77
2022/01/31 11:43:20;;;;;;;22.92;1.80;;;9.80;99.90;;;;;;5044228;28;20276;-77
2022/01/31 11:45:50;;;;;;;12.57;1.52;;;8.70;99.90;;;;;;5027371;28;20053;-77
2022/01/31 11:48:22;;;;;;;11.23;1.75;;;8.80;99.90;;;;;;5043982;28;20045;-77
2022/01/31 11:50:55;;;;;;;17.67;2.42;;;8.80;99.90;;;;;;5043690;28;20056;-77
2022/01/31 11:53:32;;;;;;;13.55;1.70;;;9.00;99.90;;;;;;5027015;28;20053;-77
2022/01/31 11:56:17;;;;;;;11.80;2.72;;;9.10;99.90;;;;;;5044649;28;20044;-78
2022/01/31 11:58:48;;;;;;;12.15;1.67;;;9.10;99.90;;;;;;5044083;28;20048;-78
2022/01/31 12:01:15;;;;;;;20.08;2.22;;;9.10;99.90;;;;;;5027540;28;20371;-76
2022/01/31 12:03:59;;;;;;;16.48;1.35;;;9.00;99.90;;;;;;5026953;28;20068;-76
2022/01/31 12:06:27;;;;;;;18.63;1.77;;;8.80;99.90;;;;;;5026249;28;20441;-77
2022/01/31 12:09:02;;;;;;;18.48;1.70;;;8.80;99.90;;;;;;5043473;28;20041;-76
2022/01/31 12:11:30;;;;;;;14.98;1.67;;;8.70;99.90;;;;;;5026455;28;20041;-76
2022/01/31 12:14:08;;;;;;;12.63;1.42;;;8.70;99.90;;;;;;5043862;28;20078;-77
2022/01/31 12:22:11;;;;;;;16.33;1.80;;;8.80;99.90;;;;;;5043333;28;20053;-77
2022/01/31 12:24:44;;;;;;;11.27;1.60;;;8.70;99.90;;;;;;5043022;28;20045;-77
2022/01/31 12:27:20;;;;;;;21.80;2.55;;;8.80;99.90;;;;;;5044790;28;20102;-76
2022/01/31 12:29:52;;;;;;;24.58;2.10;;;8.70;99.90;;;;;;5044096;28;20417;-76
2022/01/31 12:32:32;;;;;;;13.70;1.25;;;8.70;99.90;;;;;;5042823;28;20100;-76
2022/01/31 12:35:01;;;;;;;16.13;1.75;;;8.70;99.90;;;;;;5044820;28;20423;-76
2022/01/31 12:37:35;;;;;;;9.23;1.85;;;8.60;99.90;;;;;;5043095;28;20343;-76
2022/01/31 12:40:18;;;;;;;13.52;1.50;;;8.70;99.90;;;;;;5044465;28;20124;-76
2022/01/31 12:45:20;;;;;;;13.63;1.67;;;8.60;99.90;;;;;;5044217;28;20045;-76
2022/01/31 12:48:16;;;;;;;16.35;1.77;;;8.70;99.90;;;;;;5044159;28;20048;-75
2022/01/31 12:50:50;;;;;;;10.38;1.63;;;8.70;99.90;;;;;;5043146;28;20037;-75
2022/01/31 12:53:22;;;;;;;17.15;1.35;;;8.60;99.90;;;;;;5042650;28;20056;-75
2022/01/31 12:55:58;;;;;;;8.65;1.75;;;8.60;99.90;;;;;;5043382;28;20041;-76
2022/01/31 12:58:37;;;;;;;22.52;2.00;;;8.60;99.90;;;;;;5008997;28;20475;-76
2022/01/31 13:01:13;;;;;;;13.82;1.58;;;8.60;99.90;;;;;;5042693;28;20045;-75
2022/01/31 13:03:41;;;;;;;19.48;1.95;;;8.60;99.90;;;;;;5044198;28;20099;-76
2022/01/31 13:06:31;;;;;;;15.88;1.60;;;8.50;99.90;;;;;;5044130;28;20037;-77
2022/01/31 13:08:59;;;;;;;13.35;1.15;;;8.50;99.90;;;;;;5044333;28;20056;-77
2022/01/31 13:11:26;;;;;;;8.27;1.35;;;8.40;99.90;;;;;;5043988;28;20047;-76
2022/01/31 13:14:01;;;;;;;24.85;2.05;;;8.30;99.90;;;;;;5043111;28;20047;-77
2022/01/31 13:16:43;;;;;;;17.55;2.00;;;8.20;99.90;;;;;;5046157;28;20465;-77
2022/01/31 13:19:15;;;;;;;18.80;2.00;;;8.20;99.90;;;;;;5047847;28;20069;-77
2022/01/31 13:21:41;;;;;;;18.10;2.50;;;8.10;99.90;;;;;;5048080;28;20751;-76
2022/01/31 13:24:07;;;;;;;14.23;1.90;;;8.10;99.90;;;;;;5047665;28;20133;-78
2022/01/31 13:26:56;;;;;;;12.38;1.95;;;9.30;99.90;;;;;;5046605;28;20112;-77